sensor_id;sensor_type;location;lat;lon;timestamp;temperature;humidity
18932;DHT22;9598;50.954;3.112;2023-04-24T00:04:15;10.60;99.90
18932;DHT22;9598;50.954;3.112;2023-04-24T00:09:17;10.50;99.90
18932;DHT22;9598;50.954;3.112;2023-04-24T00:14:21;10.40;99.90
18932;DHT22;9598;50.954;3.112;2023-04-24T00:19:23;10.40;99.90
18932;DHT22;9598;50.954;3.112;2023-04-24T00:24:25;10.30;99.90
18932;DHT22;9598;50.954;3.112;2023-04-24T00:29:29;10.30;99.90
18932;DHT22;9598;50.954;3.112;2023-04-24T00:34:31;10.30;99.90
18932;DHT22;9598;50.954;3.112;2023-04-24T00:39:33;10.20;99.90
18932;DHT22;9598;50.954;3.112;2023-04-24T00:44:37;10.20;99.90
18932;DHT22;9598;50.954;3.112;2023-04-24T00:49:40;10.20;99.90
18932;DHT22;9598;50.954;3.112;2023-04-24T00:54:42;10.20;99.90
18932;DHT22;9598;50.954;3.112;2023-04-24T00:59:46;10.20;99.90
18932;DHT22;9598;50.954;3.112;2023-04-24T01:04:49;10.20;99.90
18932;DHT22;9598;50.954;3.112;2023-04-24T01:09:52;10.10;99.90
18932;DHT22;9598;50.954;3.112;2023-04-24T01:14:56;10.10;99.90
18932;DHT22;9598;50.954;3.112;2023-04-24T01:19:58;10.00;99.90
18932;DHT22;9598;50.954;3.112;2023-04-24T01:25:04;10.00;99.90
18932;DHT22;9598;50.954;3.112;2023-04-24T01:30:07;10.00;99.90
18932;DHT22;9598;50.954;3.112;2023-04-24T01:35:10;9.90;99.90
18932;DHT22;9598;50.954;3.112;2023-04-24T01:40:14;9.90;99.90
18932;DHT22;9598;50.954;3.112;2023-04-24T01:45:16;10.00;99.90
18932;DHT22;9598;50.954;3.112;2023-04-24T01:50:18;10.00;99.90
18932;DHT22;9598;50.954;3.112;2023-04-24T01:55:22;10.10;99.90
18932;DHT22;9598;50.954;3.112;2023-04-24T02:00:24;10.10;99.90
18932;DHT22;9598;50.954;3.112;2023-04-24T02:05:27;10.20;99.90
18932;DHT22;9598;50.954;3.112;2023-04-24T02:10:31;10.20;99.90
18932;DHT22;9598;50.954;3.112;2023-04-24T02:15:33;10.20;99.90
18932;DHT22;9598;50.954;3.112;2023-04-24T02:20:38;10.20;99.90
18932;DHT22;9598;50.954;3.112;2023-04-24T02:25:41;10.20;99.90
18932;DHT22;9598;50.954;3.112;2023-04-24T02:30:43;10.20;99.90
18932;DHT22;9598;50.954;3.112;2023-04-24T02:35:45;10.20;99.90
18932;DHT22;9598;50.954;3.112;2023-04-24T02:40:49;10.20;99.90
18932;DHT22;9598;50.954;3.112;2023-04-24T02:45:51;10.20;99.90
18932;DHT22;9598;50.954;3.112;2023-04-24T02:50:53;10.20;99.90
18932;DHT22;9598;50.954;3.112;2023-04-24T02:55:57;10.10;99.90
18932;DHT22;9598;50.954;3.112;2023-04-24T03:00:59;10.10;99.90
18932;DHT22;9598;50.954;3.112;2023-04-24T03:06:02;10.00;99.90
18932;DHT22;9598;50.954;3.112;2023-04-24T03:11:07;9.90;99.90
18932;DHT22;9598;50.954;3.112;2023-04-24T03:16:10;10.00;99.90
18932;DHT22;9598;50.954;3.112;2023-04-24T03:21:12;9.90;99.90
18932;DHT22;9598;50.954;3.112;2023-04-24T03:26:16;10.00;99.90
18932;DHT22;9598;50.954;3.112;2023-04-24T03:31:32;10.00;99.90
18932;DHT22;9598;50.954;3.112;2023-04-24T03:36:34;10.00;99.90
18932;DHT22;9598;50.954;3.112;2023-04-24T03:41:38;9.90;99.90
18932;DHT22;9598;50.954;3.112;2023-04-24T03:46:54;9.90;99.90
18932;DHT22;9598;50.954;3.112;2023-04-24T03:51:58;9.90;99.90
18932;DHT22;9598;50.954;3.112;2023-04-24T03:57:03;9.90;99.90
18932;DHT22;9598;50.954;3.112;2023-04-24T04:02:07;9.90;99.90
18932;DHT22;9598;50.954;3.112;2023-04-24T04:07:10;9.90;99.90
18932;DHT22;9598;50.954;3.112;2023-04-24T04:12:13;9.90;99.90
18932;DHT22;9598;50.954;3.112;2023-04-24T04:17:16;9.80;99.90
18932;DHT22;9598;50.954;3.112;2023-04-24T04:22:18;9.80;99.90
18932;DHT22;9598;50.954;3.112;2023-04-24T04:27:25;9.80;99.90
18932;DHT22;9598;50.954;3.112;2023-04-24T04:32:37;9.80;99.90
18932;DHT22;9598;50.954;3.112;2023-04-24T04:37:39;9.90;99.90
18932;DHT22;9598;50.954;3.112;2023-04-24T04:43:06;9.90;99.90
18932;DHT22;9598;50.954;3.112;2023-04-24T04:48:16;9.90;99.90
18932;DHT22;9598;50.954;3.112;2023-04-24T04:53:19;9.90;99.90
18932;DHT22;9598;50.954;3.112;2023-04-24T04:58:23;9.90;99.90
18932;DHT22;9598;50.954;3.112;2023-04-24T05:03:29;9.90;99.90
18932;DHT22;9598;50.954;3.112;2023-04-24T05:08:39;9.90;99.90
18932;DHT22;9598;50.954;3.112;2023-04-24T05:13:46;9.90;99.90
18932;DHT22;9598;50.954;3.112;2023-04-24T05:18:57;9.90;99.90
18932;DHT22;9598;50.954;3.112;2023-04-24T05:24:05;9.90;99.90
18932;DHT22;9598;50.954;3.112;2023-04-24T05:29:29;9.90;99.90
18932;DHT22;9598;50.954;3.112;2023-04-24T05:34:33;10.00;99.90
18932;DHT22;9598;50.954;3.112;2023-04-24T05:39:36;10.00;99.90
18932;DHT22;9598;50.954;3.112;2023-04-24T05:44:39;10.00;99.90
18932;DHT22;9598;50.954;3.112;2023-04-24T05:49:41;10.00;99.90
18932;DHT22;9598;50.954;3.112;2023-04-24T05:54:44;10.00;99.90
18932;DHT22;9598;50.954;3.112;2023-04-24T05:59:50;10.00;99.90
18932;DHT22;9598;50.954;3.112;2023-04-24T06:04:54;10.10;99.90
18932;DHT22;9598;50.954;3.112;2023-04-24T06:09:56;10.10;99.90
18932;DHT22;9598;50.954;3.112;2023-04-24T06:15:00;10.10;99.90
18932;DHT22;9598;50.954;3.112;2023-04-24T06:20:24;10.10;99.90
18932;DHT22;9598;50.954;3.112;2023-04-24T06:25:26;10.20;99.90
18932;DHT22;9598;50.954;3.112;2023-04-24T06:30:30;10.30;99.90
18932;DHT22;9598;50.954;3.112;2023-04-24T06:35:32;10.30;99.90
18932;DHT22;9598;50.954;3.112;2023-04-24T06:40:34;10.30;99.90
18932;DHT22;9598;50.954;3.112;2023-04-24T06:45:38;10.30;99.90
18932;DHT22;9598;50.954;3.112;2023-04-24T06:50:40;10.30;99.90
18932;DHT22;9598;50.954;3.112;2023-04-24T06:55:42;10.40;99.90
18932;DHT22;9598;50.954;3.112;2023-04-24T07:00:46;10.50;99.90
18932;DHT22;9598;50.954;3.112;2023-04-24T07:05:48;10.60;99.90
18932;DHT22;9598;50.954;3.112;2023-04-24T07:10:52;10.60;99.90
18932;DHT22;9598;50.954;3.112;2023-04-24T07:15:55;10.60;99.90
18932;DHT22;9598;50.954;3.112;2023-04-24T07:20:57;10.70;99.90
18932;DHT22;9598;50.954;3.112;2023-04-24T07:25:59;10.90;99.90
18932;DHT22;9598;50.954;3.112;2023-04-24T07:31:03;10.90;99.90
18932;DHT22;9598;50.954;3.112;2023-04-24T07:36:05;10.90;99.90
18932;DHT22;9598;50.954;3.112;2023-04-24T07:41:07;10.90;99.90
18932;DHT22;9598;50.954;3.112;2023-04-24T07:46:11;10.80;99.90
18932;DHT22;9598;50.954;3.112;2023-04-24T07:51:13;10.80;99.90
18932;DHT22;9598;50.954;3.112;2023-04-24T07:56:15;11.00;99.90
18932;DHT22;9598;50.954;3.112;2023-04-24T08:01:19;11.20;99.90
18932;DHT22;9598;50.954;3.112;2023-04-24T08:06:21;11.20;99.90
18932;DHT22;9598;50.954;3.112;2023-04-24T08:11:23;11.20;99.90
18932;DHT22;9598;50.954;3.112;2023-04-24T08:16:26;11.10;99.90
18932;DHT22;9598;50.954;3.112;2023-04-24T08:21:28;11.10;99.90
18932;DHT22;9598;50.954;3.112;2023-04-24T08:26:31;11.10;99.90
18932;DHT22;9598;50.954;3.112;2023-04-24T08:31:34;11.10;99.90
18932;DHT22;9598;50.954;3.112;2023-04-24T08:36:36;11.00;99.90
18932;DHT22;9598;50.954;3.112;2023-04-24T08:41:42;11.10;99.90
18932;DHT22;9598;50.954;3.112;2023-04-24T08:46:47;11.10;99.90
18932;DHT22;9598;50.954;3.112;2023-04-24T08:51:50;11.20;99.90
18932;DHT22;9598;50.954;3.112;2023-04-24T08:56:55;11.20;99.90
18932;DHT22;9598;50.954;3.112;2023-04-24T09:02:04;11.40;99.90
18932;DHT22;9598;50.954;3.112;2023-04-24T09:07:06;11.40;99.90
18932;DHT22;9598;50.954;3.112;2023-04-24T09:12:10;11.50;99.90
18932;DHT22;9598;50.954;3.112;2023-04-24T09:17:13;11.40;99.90
18932;DHT22;9598;50.954;3.112;2023-04-24T09:22:15;11.50;99.90
18932;DHT22;9598;50.954;3.112;2023-04-24T09:27:17;11.50;99.90
18932;DHT22;9598;50.954;3.112;2023-04-24T09:32:23;11.60;99.90
18932;DHT22;9598;50.954;3.112;2023-04-24T09:37:29;11.60;99.90
18932;DHT22;9598;50.954;3.112;2023-04-24T09:42:31;11.60;99.90
18932;DHT22;9598;50.954;3.112;2023-04-24T09:47:37;11.60;99.90
18932;DHT22;9598;50.954;3.112;2023-04-24T09:52:41;11.60;99.90
18932;DHT22;9598;50.954;3.112;2023-04-24T09:57:48;11.60;99.90
18932;DHT22;9598;50.954;3.112;2023-04-24T10:02:54;11.60;99.90
18932;DHT22;9598;50.954;3.112;2023-04-24T10:07:59;11.70;99.90
18932;DHT22;9598;50.954;3.112;2023-04-24T10:13:02;11.70;99.90
18932;DHT22;9598;50.954;3.112;2023-04-24T10:18:07;11.70;99.90
18932;DHT22;9598;50.954;3.112;2023-04-24T10:23:09;11.90;99.90
18932;DHT22;9598;50.954;3.112;2023-04-24T10:28:12;12.00;99.90
18932;DHT22;9598;50.954;3.112;2023-04-24T10:33:17;12.30;99.90
18932;DHT22;9598;50.954;3.112;2023-04-24T10:38:23;12.60;99.90
18932;DHT22;9598;50.954;3.112;2023-04-24T10:43:26;12.90;99.90
18932;DHT22;9598;50.954;3.112;2023-04-24T10:48:29;12.90;99.90
18932;DHT22;9598;50.954;3.112;2023-04-24T10:53:35;12.90;99.90
18932;DHT22;9598;50.954;3.112;2023-04-24T10:58:39;13.00;99.90
18932;DHT22;9598;50.954;3.112;2023-04-24T11:03:53;13.10;99.90
18932;DHT22;9598;50.954;3.112;2023-04-24T11:09:03;13.00;99.90
18932;DHT22;9598;50.954;3.112;2023-04-24T11:14:07;13.20;99.90
18932;DHT22;9598;50.954;3.112;2023-04-24T11:19:21;13.30;99.90
18932;DHT22;9598;50.954;3.112;2023-04-24T11:24:26;13.30;99.90
18932;DHT22;9598;50.954;3.112;2023-04-24T11:29:42;13.50;99.90
18932;DHT22;9598;50.954;3.112;2023-04-24T11:34:48;13.80;99.90
18932;DHT22;9598;50.954;3.112;2023-04-24T11:39:52;13.70;99.90
18932;DHT22;9598;50.954;3.112;2023-04-24T11:44:55;13.70;99.90
18932;DHT22;9598;50.954;3.112;2023-04-24T11:50:00;13.60;99.90
18932;DHT22;9598;50.954;3.112;2023-04-24T11:55:02;13.60;99.90
18932;DHT22;9598;50.954;3.112;2023-04-24T12:00:05;13.60;99.90
18932;DHT22;9598;50.954;3.112;2023-04-24T12:05:21;13.70;99.90
18932;DHT22;9598;50.954;3.112;2023-04-24T12:10:24;13.80;99.90
18932;DHT22;9598;50.954;3.112;2023-04-24T12:15:27;13.80;99.90
18932;DHT22;9598;50.954;3.112;2023-04-24T12:20:31;13.80;99.90
18932;DHT22;9598;50.954;3.112;2023-04-24T12:25:34;13.70;99.90
18932;DHT22;9598;50.954;3.112;2023-04-24T12:30:41;13.70;99.90
18932;DHT22;9598;50.954;3.112;2023-04-24T12:35:47;13.70;99.90
18932;DHT22;9598;50.954;3.112;2023-04-24T12:41:01;13.70;99.90
18932;DHT22;9598;50.954;3.112;2023-04-24T12:46:04;13.90;99.90
18932;DHT22;9598;50.954;3.112;2023-04-24T12:51:08;13.90;99.90
18932;DHT22;9598;50.954;3.112;2023-04-24T12:56:10;14.00;99.90
18932;DHT22;9598;50.954;3.112;2023-04-24T13:01:12;14.00;99.90
18932;DHT22;9598;50.954;3.112;2023-04-24T13:06:15;13.90;99.90
18932;DHT22;9598;50.954;3.112;2023-04-24T13:11:17;14.00;99.90
18932;DHT22;9598;50.954;3.112;2023-04-24T13:16:19;14.20;99.90
18932;DHT22;9598;50.954;3.112;2023-04-24T13:21:23;14.40;99.90
18932;DHT22;9598;50.954;3.112;2023-04-24T13:26:27;14.40;99.90
18932;DHT22;9598;50.954;3.112;2023-04-24T13:31:29;14.40;99.90
18932;DHT22;9598;50.954;3.112;2023-04-24T13:36:32;14.50;99.90
18932;DHT22;9598;50.954;3.112;2023-04-24T13:41:34;14.50;99.90
18932;DHT22;9598;50.954;3.112;2023-04-24T13:46:36;14.50;99.90
18932;DHT22;9598;50.954;3.112;2023-04-24T13:51:41;14.30;99.90
18932;DHT22;9598;50.954;3.112;2023-04-24T13:56:43;14.30;99.90
18932;DHT22;9598;50.954;3.112;2023-04-24T14:01:45;14.20;99.90
18932;DHT22;9598;50.954;3.112;2023-04-24T14:06:49;14.10;99.90
18932;DHT22;9598;50.954;3.112;2023-04-24T14:11:52;13.80;99.90
18932;DHT22;9598;50.954;3.112;2023-04-24T14:16:54;13.70;99.90
18932;DHT22;9598;50.954;3.112;2023-04-24T14:21:57;13.80;99.90
18932;DHT22;9598;50.954;3.112;2023-04-24T14:26:59;13.80;99.90
18932;DHT22;9598;50.954;3.112;2023-04-24T14:32:02;13.70;99.90
18932;DHT22;9598;50.954;3.112;2023-04-24T14:37:05;13.50;99.90
18932;DHT22;9598;50.954;3.112;2023-04-24T14:42:07;13.50;99.90
18932;DHT22;9598;50.954;3.112;2023-04-24T14:47:09;13.50;99.90
18932;DHT22;9598;50.954;3.112;2023-04-24T14:52:13;13.50;99.90
18932;DHT22;9598;50.954;3.112;2023-04-24T14:57:15;13.50;99.90
18932;DHT22;9598;50.954;3.112;2023-04-24T15:02:17;13.60;99.90
18932;DHT22;9598;50.954;3.112;2023-04-24T15:07:20;13.80;99.90
18932;DHT22;9598;50.954;3.112;2023-04-24T15:12:22;14.00;99.90
18932;DHT22;9598;50.954;3.112;2023-04-24T15:17:25;14.00;99.90
18932;DHT22;9598;50.954;3.112;2023-04-24T15:22:29;14.00;99.90
18932;DHT22;9598;50.954;3.112;2023-04-24T15:27:40;13.90;99.90
18932;DHT22;9598;50.954;3.112;2023-04-24T15:32:42;13.80;99.90
18932;DHT22;9598;50.954;3.112;2023-04-24T15:37:46;13.80;99.90
18932;DHT22;9598;50.954;3.112;2023-04-24T15:42:48;13.60;99.90
18932;DHT22;9598;50.954;3.112;2023-04-24T15:47:50;13.60;99.90
18932;DHT22;9598;50.954;3.112;2023-04-24T15:52:54;13.60;99.90
18932;DHT22;9598;50.954;3.112;2023-04-24T15:57:56;13.50;99.90
18932;DHT22;9598;50.954;3.112;2023-04-24T16:02:58;13.40;99.90
18932;DHT22;9598;50.954;3.112;2023-04-24T16:08:02;13.30;99.90
18932;DHT22;9598;50.954;3.112;2023-04-24T16:13:04;13.30;99.90
18932;DHT22;9598;50.954;3.112;2023-04-24T16:18:06;13.40;99.90
18932;DHT22;9598;50.954;3.112;2023-04-24T16:23:10;13.40;99.90
18932;DHT22;9598;50.954;3.112;2023-04-24T16:28:12;13.40;99.90
18932;DHT22;9598;50.954;3.112;2023-04-24T16:33:14;13.40;99.90
18932;DHT22;9598;50.954;3.112;2023-04-24T16:38:18;13.40;99.90
18932;DHT22;9598;50.954;3.112;2023-04-24T16:43:20;13.40;99.90
18932;DHT22;9598;50.954;3.112;2023-04-24T16:48:22;13.30;99.90
18932;DHT22;9598;50.954;3.112;2023-04-24T16:53:25;13.30;99.90
18932;DHT22;9598;50.954;3.112;2023-04-24T16:58:28;13.20;99.90
18932;DHT22;9598;50.954;3.112;2023-04-24T17:03:30;13.20;99.90
18932;DHT22;9598;50.954;3.112;2023-04-24T17:08:34;13.20;99.90
18932;DHT22;9598;50.954;3.112;2023-04-24T17:13:36;13.20;99.90
18932;DHT22;9598;50.954;3.112;2023-04-24T17:18:38;13.20;99.90
18932;DHT22;9598;50.954;3.112;2023-04-24T17:23:41;13.20;99.90
18932;DHT22;9598;50.954;3.112;2023-04-24T17:28:43;13.10;99.90
18932;DHT22;9598;50.954;3.112;2023-04-24T17:33:45;13.10;99.90
18932;DHT22;9598;50.954;3.112;2023-04-24T17:38:49;13.00;99.90
18932;DHT22;9598;50.954;3.112;2023-04-24T17:43:51;13.00;99.90
18932;DHT22;9598;50.954;3.112;2023-04-24T17:48:54;12.90;99.90
18932;DHT22;9598;50.954;3.112;2023-04-24T17:53:57;12.70;99.90
18932;DHT22;9598;50.954;3.112;2023-04-24T17:58:59;12.40;99.90
18932;DHT22;9598;50.954;3.112;2023-04-24T18:04:02;12.20;99.90
18932;DHT22;9598;50.954;3.112;2023-04-24T18:09:05;12.30;99.90
18932;DHT22;9598;50.954;3.112;2023-04-24T18:14:08;12.30;99.90
18932;DHT22;9598;50.954;3.112;2023-04-24T18:19:10;12.40;99.90
18932;DHT22;9598;50.954;3.112;2023-04-24T18:24:13;12.40;99.90
18932;DHT22;9598;50.954;3.112;2023-04-24T18:29:16;12.50;99.90
18932;DHT22;9598;50.954;3.112;2023-04-24T18:34:18;12.50;99.90
18932;DHT22;9598;50.954;3.112;2023-04-24T18:39:21;12.50;99.90
18932;DHT22;9598;50.954;3.112;2023-04-24T18:44:23;12.50;99.90
18932;DHT22;9598;50.954;3.112;2023-04-24T18:49:26;12.40;99.90
18932;DHT22;9598;50.954;3.112;2023-04-24T18:54:30;12.20;99.90
18932;DHT22;9598;50.954;3.112;2023-04-24T18:59:32;12.10;99.90
18932;DHT22;9598;50.954;3.112;2023-04-24T19:04:34;12.10;99.90
18932;DHT22;9598;50.954;3.112;2023-04-24T19:09:38;12.10;99.90
18932;DHT22;9598;50.954;3.112;2023-04-24T19:14:40;12.10;99.90
18932;DHT22;9598;50.954;3.112;2023-04-24T19:19:42;12.10;99.90
18932;DHT22;9598;50.954;3.112;2023-04-24T19:24:46;12.20;99.90
18932;DHT22;9598;50.954;3.112;2023-04-24T19:29:48;12.20;99.90
18932;DHT22;9598;50.954;3.112;2023-04-24T19:34:51;12.20;99.90
18932;DHT22;9598;50.954;3.112;2023-04-24T19:39:55;12.10;99.90
18932;DHT22;9598;50.954;3.112;2023-04-24T19:44:57;12.10;99.90
18932;DHT22;9598;50.954;3.112;2023-04-24T19:49:59;12.00;99.90
18932;DHT22;9598;50.954;3.112;2023-04-24T19:55:02;12.10;99.90
18932;DHT22;9598;50.954;3.112;2023-04-24T20:00:06;12.00;99.90
18932;DHT22;9598;50.954;3.112;2023-04-24T20:05:08;11.90;99.90
18932;DHT22;9598;50.954;3.112;2023-04-24T20:10:12;11.80;99.90
18932;DHT22;9598;50.954;3.112;2023-04-24T20:15:14;11.80;99.90
18932;DHT22;9598;50.954;3.112;2023-04-24T20:20:16;11.80;99.90
18932;DHT22;9598;50.954;3.112;2023-04-24T20:25:20;11.70;99.90
18932;DHT22;9598;50.954;3.112;2023-04-24T20:30:22;11.70;99.90
18932;DHT22;9598;50.954;3.112;2023-04-24T20:35:25;11.50;99.90
18932;DHT22;9598;50.954;3.112;2023-04-24T20:40:28;11.40;99.90
18932;DHT22;9598;50.954;3.112;2023-04-24T20:45:31;11.40;99.90
18932;DHT22;9598;50.954;3.112;2023-04-24T20:50:33;11.50;99.90
18932;DHT22;9598;50.954;3.112;2023-04-24T20:55:40;11.50;99.90
18932;DHT22;9598;50.954;3.112;2023-04-24T21:00:42;11.50;99.90
18932;DHT22;9598;50.954;3.112;2023-04-24T21:05:44;11.40;99.90
18932;DHT22;9598;50.954;3.112;2023-04-24T21:10:48;11.30;99.90
18932;DHT22;9598;50.954;3.112;2023-04-24T21:15:51;11.20;99.90
18932;DHT22;9598;50.954;3.112;2023-04-24T21:20:56;11.20;99.90
18932;DHT22;9598;50.954;3.112;2023-04-24T21:26:00;11.30;99.90
18932;DHT22;9598;50.954;3.112;2023-04-24T21:31:02;11.30;99.90
18932;DHT22;9598;50.954;3.112;2023-04-24T21:36:04;11.40;99.90
18932;DHT22;9598;50.954;3.112;2023-04-24T21:41:08;11.40;99.90
18932;DHT22;9598;50.954;3.112;2023-04-24T21:46:10;11.40;99.90
18932;DHT22;9598;50.954;3.112;2023-04-24T21:51:12;11.40;99.90
18932;DHT22;9598;50.954;3.112;2023-04-24T21:56:17;11.50;99.90
18932;DHT22;9598;50.954;3.112;2023-04-24T22:01:19;11.50;99.90
18932;DHT22;9598;50.954;3.112;2023-04-24T22:06:21;11.50;99.90
18932;DHT22;9598;50.954;3.112;2023-04-24T22:11:25;11.50;99.90
18932;DHT22;9598;50.954;3.112;2023-04-24T22:16:27;11.40;99.90
18932;DHT22;9598;50.954;3.112;2023-04-24T22:21:31;11.50;99.90
18932;DHT22;9598;50.954;3.112;2023-04-24T22:26:35;11.50;99.90
18932;DHT22;9598;50.954;3.112;2023-04-24T22:31:37;11.40;99.90
18932;DHT22;9598;50.954;3.112;2023-04-24T22:36:39;11.40;99.90
18932;DHT22;9598;50.954;3.112;2023-04-24T22:41:42;11.40;99.90
18932;DHT22;9598;50.954;3.112;2023-04-24T22:46:44;11.30;99.90
18932;DHT22;9598;50.954;3.112;2023-04-24T22:51:47;11.30;99.90
18932;DHT22;9598;50.954;3.112;2023-04-24T22:56:50;11.30;99.90
18932;DHT22;9598;50.954;3.112;2023-04-24T23:01:52;11.30;99.90
18932;DHT22;9598;50.954;3.112;2023-04-24T23:06:55;11.30;99.90
18932;DHT22;9598;50.954;3.112;2023-04-24T23:11:58;11.30;99.90
18932;DHT22;9598;50.954;3.112;2023-04-24T23:17:01;11.30;99.90
18932;DHT22;9598;50.954;3.112;2023-04-24T23:22:03;11.30;99.90
18932;DHT22;9598;50.954;3.112;2023-04-24T23:27:07;11.40;99.90
18932;DHT22;9598;50.954;3.112;2023-04-24T23:32:09;11.40;99.90
18932;DHT22;9598;50.954;3.112;2023-04-24T23:37:11;11.30;99.90
18932;DHT22;9598;50.954;3.112;2023-04-24T23:42:14;11.30;99.90
18932;DHT22;9598;50.954;3.112;2023-04-24T23:47:16;11.20;99.90
18932;DHT22;9598;50.954;3.112;2023-04-24T23:52:19;11.10;99.90
18932;DHT22;9598;50.954;3.112;2023-04-24T23:57:22;11.10;99.90
